Time;durP1;ratioP1;P1;durP2;ratioP2;P2;SDS_P1;SDS_P2;PMS_P1;PMS_P2;Temp;Humidity;BMP_temperature;BMP_pressure;BME280_temperature;BME280_humidity;BME280_pressure;Samples;Min_cycle;Max_cycle;Signal;HPM_P1;HPM_P2
2022/10/02 00:01:26;;;;;;;;;;;;;;;;;;5018603;28;20281;-76
2022/10/02 00:03:53;;;;;;;;;;;;;;;;;;5034224;28;19925;-75
2022/10/02 00:06:21;;;;;;;;;;;;;;;;;;5019633;28;19926;-75
2022/10/02 00:08:49;;;;;;;;;;;;;;;;;;5014371;28;19925;-76
2022/10/02 00:11:19;;;;;;;;;;;;;;;;;;5014023;28;19964;-75
2022/10/02 00:13:46;;;;;;;;;;;;;;;;;;5014050;28;19929;-74
2022/10/02 00:16:16;;;;;;;;;;;;;;;;;;5013732;28;19925;-74
2022/10/02 00:18:45;;;;;;;;;;;;;;;;;;5014034;28;19925;-75
2022/10/02 00:21:14;;;;;;;;;;;;;;;;;;5014182;28;20303;-74
2022/10/02 00:23:41;;;;;;;;;;;;;;;;;;5014222;28;19926;-74
2022/10/02 00:26:10;;;;;;;;;;;;;;;;;;5014258;28;19925;-74
2022/10/02 00:28:43;;;;;;;;;;;;;;;;;;5013805;28;19925;-75
2022/10/02 00:31:18;;;;;;;;;;;;;;;;;;5013849;28;20305;-74
2022/10/02 00:33:52;;;;;;;;;;;;;;;;;;5014312;28;19981;-75
2022/10/02 00:36:24;;;;;;;;;;;;;;;;;;5014246;28;19972;-74
2022/10/02 00:38:56;;;;;;;;;;;;;;;;;;5013938;28;19925;-74
2022/10/02 00:41:35;;;;;;;;;;;;;;;;;;5013814;28;19926;-75
2022/10/02 00:44:11;;;;;;;;;;;;;;;;;;5013850;28;19961;-75
2022/10/02 00:46:41;;;;;;;;;;;;;;;;;;5013759;28;19925;-74
2022/10/02 00:49:24;;;;;;;;;;;;;;;;;;5013999;28;19925;-75
2022/10/02 00:51:56;;;;;;;;;;;;;;;;;;5013593;28;19926;-74
2022/10/02 00:54:29;;;;;;;;;;;;;;;;;;5013597;28;20291;-74
2022/10/02 00:57:04;;;;;;;;;;;;;;;;;;5013477;28;19929;-74
2022/10/02 00:59:49;;;;;;;;;;;;;;;;;;5013165;28;19932;-75
2022/10/02 01:02:30;;;;;;;;;;;;;;;;;;5019995;28;19931;-76
2022/10/02 01:04:58;;;;;;;;;;;;;;;;;;5033023;28;19929;-74
2022/10/02 01:07:24;;;;;;;;;;;;;;;;;;5033143;28;19925;-74
2022/10/02 01:09:51;;;;;;;;;;;;;;;;;;5035399;28;19984;-75
2022/10/02 01:12:17;;;;;;;;;;;;;;;;;;5042267;28;19924;-74
2022/10/02 01:14:44;;;;;;;;;;;;;;;;;;5041999;28;19925;-74
2022/10/02 01:17:20;;;;;;;;;;;;;;;;;;5043784;28;19975;-75
2022/10/02 01:19:46;;;;;;;;;;;;;;;;;;5039832;28;20396;-74
2022/10/02 01:22:17;;;;;;;;;;;;;;;;;;5037468;28;20335;-75
2022/10/02 01:24:48;;;;;;;;;;;;;;;;;;5033453;28;19925;-74
2022/10/02 01:27:14;;;;;;;;;;;;;;;;;;5037239;28;19931;-74
2022/10/02 01:29:41;;;;;;;;;;;;;;;;;;5038862;28;19932;-74
2022/10/02 01:32:07;;;;;;;;;;;;;;;;;;5044199;28;19931;-74
2022/10/02 01:34:34;;;;;;;;;;;;;;;;;;5048974;28;20298;-75
2022/10/02 01:37:00;;;;;;;;;;;;;;;;;;5046581;28;19925;-74
2022/10/02 01:39:27;;;;;;;;;;;;;;;;;;5035035;28;19925;-74
2022/10/02 01:41:55;;;;;;;;;;;;;;;;;;5032635;28;19925;-75
2022/10/02 01:44:21;;;;;;;;;;;;;;;;;;5032990;28;19932;-75
2022/10/02 01:46:52;;;;;;;;;;;;;;;;;;5032517;28;19925;-75
2022/10/02 01:49:39;;;;;;;;;;;;;;;;;;5032191;28;20406;-74
2022/10/02 01:52:22;;;;;;;;;;;;;;;;;;4990444;28;20017;-75
2022/10/02 01:55:00;;;;;;;;;;;;;;;;;;4993286;28;19929;-75
2022/10/02 01:57:32;;;;;;;;;;;;;;;;;;4992922;28;19937;-74
2022/10/02 02:00:06;;;;;;;;;;;;;;;;;;4992579;28;19925;-74
2022/10/02 02:02:36;;;;;;;;;;;;;;;;;;4992826;28;19933;-74
2022/10/02 02:05:07;;;;;;;;;;;;;;;;;;4993535;28;19932;-75
2022/10/02 02:07:40;;;;;;;;;;;;;;;;;;4993027;28;19926;-74
2022/10/02 02:10:11;;;;;;;;;;;;;;;;;;4992942;28;19948;-74
2022/10/02 02:12:41;;;;;;;;;;;;;;;;;;4992282;28;19926;-75
2022/10/02 02:15:11;;;;;;;;;;;;;;;;;;4992990;28;19926;-75
2022/10/02 02:17:42;;;;;;;;;;;;;;;;;;4992833;28;20036;-75
2022/10/02 02:20:09;;;;;;;;;;;;;;;;;;4992461;28;20020;-74
2022/10/02 02:22:38;;;;;;;;;;;;;;;;;;4995072;28;19934;-74
2022/10/02 02:25:07;;;;;;;;;;;;;;;;;;5012116;28;20396;-74
2022/10/02 02:27:36;;;;;;;;;;;;;;;;;;5012297;28;19925;-75
2022/10/02 02:30:05;;;;;;;;;;;;;;;;;;5012305;28;19931;-75
2022/10/02 02:32:34;;;;;;;;;;;;;;;;;;5012209;28;19925;-74
2022/10/02 02:35:03;;;;;;;;;;;;;;;;;;5012523;28;20392;-74
2022/10/02 02:37:32;;;;;;;;;;;;;;;;;;5033793;28;19929;-74
2022/10/02 02:40:00;;;;;;;;;;;;;;;;;;5036808;28;19997;-74
2022/10/02 02:42:29;;;;;;;;;;;;;;;;;;5021514;28;19930;-75
2022/10/02 02:44:57;;;;;;;;;;;;;;;;;;5016200;28;19949;-75
2022/10/02 02:47:27;;;;;;;;;;;;;;;;;;5015692;28;19925;-75
2022/10/02 02:49:54;;;;;;;;;;;;;;;;;;5015645;28;20404;-75
2022/10/02 02:52:22;;;;;;;;;;;;;;;;;;5015804;28;19932;-75
2022/10/02 02:54:50;;;;;;;;;;;;;;;;;;5015634;28;19984;-74
2022/10/02 02:57:18;;;;;;;;;;;;;;;;;;5015673;28;19937;-75
2022/10/02 02:59:47;;;;;;;;;;;;;;;;;;5015423;28;19925;-75
2022/10/02 03:02:14;;;;;;;;;;;;;;;;;;5021650;28;20004;-74
2022/10/02 03:04:42;;;;;;;;;;;;;;;;;;5035423;28;19929;-74
2022/10/02 03:07:10;;;;;;;;;;;;;;;;;;5035141;28;20016;-75
2022/10/02 03:09:39;;;;;;;;;;;;;;;;;;5034855;28;20284;-74
2022/10/02 03:12:12;;;;;;;;;;;;;;;;;;5034853;28;20295;-75
2022/10/02 03:15:02;;;;;;;;;;;;;;;;;;5035263;28;19925;-75
2022/10/02 03:17:35;;;;;;;;;;;;;;;;;;5007667;28;19929;-74
2022/10/02 03:20:08;;;;;;;;;;;;;;;;;;5015005;28;20020;-74
2022/10/02 03:22:40;;;;;;;;;;;;;;;;;;5015307;28;19925;-75
2022/10/02 03:25:09;;;;;;;;;;;;;;;;;;5015365;28;20329;-74
2022/10/02 03:27:37;;;;;;;;;;;;;;;;;;5015046;28;20450;-74
2022/10/02 03:30:05;;;;;;;;;;;;;;;;;;5015032;28;20399;-74
2022/10/02 03:32:32;;;;;;;;;;;;;;;;;;5015085;28;19980;-75
2022/10/02 03:35:00;;;;;;;;;;;;;;;;;;5015320;28;19932;-74
2022/10/02 03:37:28;;;;;;;;;;;;;;;;;;5015094;28;19948;-74
2022/10/02 03:39:57;;;;;;;;;;;;;;;;;;5014581;28;19925;-74
2022/10/02 03:42:25;;;;;;;;;;;;;;;;;;5014707;28;19926;-74
2022/10/02 03:44:52;;;;;;;;;;;;;;;;;;5015178;28;19925;-75
2022/10/02 03:47:18;;;;;;;;;;;;;;;;;;5014913;28;19960;-74
2022/10/02 03:49:45;;;;;;;;;;;;;;;;;;5014691;28;19931;-74
2022/10/02 03:52:13;;;;;;;;;;;;;;;;;;5014549;28;19925;-74
2022/10/02 03:54:41;;;;;;;;;;;;;;;;;;5014447;28;20367;-74
2022/10/02 03:57:12;;;;;;;;;;;;;;;;;;5014384;28;19926;-74
2022/10/02 03:59:44;;;;;;;;;;;;;;;;;;5014200;28;19933;-74
2022/10/02 04:02:16;;;;;;;;;;;;;;;;;;5020286;28;19931;-74
2022/10/02 04:04:46;;;;;;;;;;;;;;;;;;5034310;28;20546;-75
2022/10/02 04:07:14;;;;;;;;;;;;;;;;;;5034222;28;19931;-75
2022/10/02 04:09:46;;;;;;;;;;;;;;;;;;5033671;28;20511;-75
2022/10/02 04:12:15;;;;;;;;;;;;;;;;;;5034317;28;20295;-75
2022/10/02 04:14:44;;;;;;;;;;;;;;;;;;5034421;28;19975;-74
2022/10/02 04:17:13;;;;;;;;;;;;;;;;;;5033876;28;19925;-74
2022/10/02 04:19:44;;;;;;;;;;;;;;;;;;5033807;28;19932;-75
2022/10/02 04:22:15;;;;;;;;;;;;;;;;;;5033958;28;19979;-75
2022/10/02 04:24:47;;;;;;;;;;;;;;;;;;5034136;28;19925;-75
2022/10/02 04:27:15;;;;;;;;;;;;;;;;;;5034113;28;19932;-75
2022/10/02 04:29:44;;;;;;;;;;;;;;;;;;5033756;28;20763;-74
2022/10/02 04:32:13;;;;;;;;;;;;;;;;;;5033525;28;19932;-74
2022/10/02 04:34:39;;;;;;;;;;;;;;;;;;5033820;28;19929;-74
2022/10/02 04:37:12;;;;;;;;;;;;;;;;;;5033694;28;19932;-75
2022/10/02 04:39:45;;;;;;;;;;;;;;;;;;5033258;28;20443;-75
2022/10/02 04:42:23;;;;;;;;;;;;;;;;;;5033707;28;19925;-75
2022/10/02 04:45:00;;;;;;;;;;;;;;;;;;5033524;28;19932;-75
2022/10/02 04:47:42;;;;;;;;;;;;;;;;;;5033272;28;20019;-75
2022/10/02 04:50:18;;;;;;;;;;;;;;;;;;5033346;28;19931;-75
2022/10/02 04:53:00;;;;;;;;;;;;;;;;;;5033242;28;20269;-75
2022/10/02 04:55:44;;;;;;;;;;;;;;;;;;5033455;28;20676;-75
2022/10/02 04:58:23;;;;;;;;;;;;;;;;;;5025908;28;19925;-75
2022/10/02 05:00:57;;;;;;;;;;;;;;;;;;5032592;28;19925;-75
2022/10/02 05:03:30;;;;;;;;;;;;;;;;;;5033267;28;19925;-75
2022/10/02 05:06:05;;;;;;;;;;;;;;;;;;5033391;28;20396;-75
2022/10/02 05:08:47;;;;;;;;;;;;;;;;;;5032804;28;19925;-75
2022/10/02 05:11:22;;;;;;;;;;;;;;;;;;5035018;28;19948;-75
2022/10/02 05:13:56;;;;;;;;;;;;;;;;;;5033354;28;19925;-75
2022/10/02 05:16:37;;;;;;;;;;;;;;;;;;5033004;28;19925;-75
2022/10/02 05:19:17;;;;;;;;;;;;;;;;;;5033085;28;20021;-75
2022/10/02 05:21:49;;;;;;;;;;;;;;;;;;5033130;28;19932;-74
2022/10/02 05:24:27;;;;;;;;;;;;;;;;;;5040839;28;19932;-74
2022/10/02 05:27:05;;;;;;;;;;;;;;;;;;5053798;28;20003;-74
2022/10/02 05:29:40;;;;;;;;;;;;;;;;;;5050631;28;20364;-74
2022/10/02 05:32:21;;;;;;;;;;;;;;;;;;5033677;28;19931;-74
2022/10/02 05:34:58;;;;;;;;;;;;;;;;;;5033509;28;20011;-74
2022/10/02 05:37:29;;;;;;;;;;;;;;;;;;5034050;28;19925;-74
2022/10/02 05:39:57;;;;;;;;;;;;;;;;;;5034797;28;19925;-74
2022/10/02 05:42:29;;;;;;;;;;;;;;;;;;5032636;28;20324;-74
2022/10/02 05:45:00;;;;;;;;;;;;;;;;;;5032785;28;19925;-74
2022/10/02 05:47:29;;;;;;;;;;;;;;;;;;5032638;28;20059;-75
2022/10/02 05:49:58;;;;;;;;;;;;;;;;;;5032292;28;20382;-75
2022/10/02 05:52:26;;;;;;;;;;;;;;;;;;5032523;28;19925;-74
2022/10/02 05:54:55;;;;;;;;;;;;;;;;;;5032355;28;20273;-74
2022/10/02 05:57:25;;;;;;;;;;;;;;;;;;5032348;28;19925;-74
2022/10/02 05:59:56;;;;;;;;;;;;;;;;;;5031933;28;19931;-75
2022/10/02 06:02:27;;;;;;;;;;;;;;;;;;5025622;28;19932;-74
2022/10/02 06:04:57;;;;;;;;;;;;;;;;;;5012792;28;19941;-74
2022/10/02 06:07:24;;;;;;;;;;;;;;;;;;5012736;28;19933;-74
2022/10/02 06:09:54;;;;;;;;;;;;;;;;;;5012332;28;19972;-74
2022/10/02 06:12:25;;;;;;;;;;;;;;;;;;5019894;28;19975;-74
2022/10/02 06:14:55;;;;;;;;;;;;;;;;;;5037016;28;19925;-74
2022/10/02 06:17:23;;;;;;;;;;;;;;;;;;5033843;28;19925;-74
2022/10/02 06:19:53;;;;;;;;;;;;;;;;;;5016402;28;20392;-74
2022/10/02 06:22:21;;;;;;;;;;;;;;;;;;5016392;28;20415;-74
2022/10/02 06:24:50;;;;;;;;;;;;;;;;;;5016386;28;19925;-74
2022/10/02 06:27:22;;;;;;;;;;;;;;;;;;5016243;28;20443;-74
2022/10/02 06:29:50;;;;;;;;;;;;;;;;;;5016051;28;19925;-74
2022/10/02 06:32:19;;;;;;;;;;;;;;;;;;5016292;28;19948;-74
2022/10/02 06:34:45;;;;;;;;;;;;;;;;;;5016086;28;19969;-74
2022/10/02 06:37:22;;;;;;;;;;;;;;;;;;5015888;28;20451;-74
2022/10/02 06:39:56;;;;;;;;;;;;;;;;;;5016003;28;20018;-74
2022/10/02 06:42:27;;;;;;;;;;;;;;;;;;5016193;28;19976;-75
2022/10/02 06:44:57;;;;;;;;;;;;;;;;;;5016267;28;19980;-75
2022/10/02 06:47:34;;;;;;;;;;;;;;;;;;5015961;28;20401;-75
2022/10/02 06:50:09;;;;;;;;;;;;;;;;;;5015576;28;19930;-76
2022/10/02 06:52:40;;;;;;;;;;;;;;;;;;5015942;28;20423;-75
2022/10/02 06:55:28;;;;;;;;;;;;;;;;;;5015879;28;19984;-75
2022/10/02 06:58:00;;;;;;;;;;;;;;;;;;5015579;28;19975;-75
2022/10/02 07:00:26;;;;;;;;;;;;;;;;;;5015399;28;19925;-75
2022/10/02 07:02:59;;;;;;;;;;;;;;;;;;5016079;28;19925;-75
2022/10/02 07:05:40;;;;;;;;;;;;;;;;;;5015664;28;20037;-75
2022/10/02 07:08:11;;;;;;;;;;;;;;;;;;5016147;28;19926;-75
2022/10/02 07:10:42;;;;;;;;;;;;;;;;;;5015352;28;19925;-75
2022/10/02 07:13:17;;;;;;;;;;;;;;;;;;5015782;28;20017;-75
2022/10/02 07:15:56;;;;;;;;;;;;;;;;;;5015576;28;20300;-75
2022/10/02 07:18:28;;;;;;;;;;;;;;;;;;5016014;28;20016;-75
2022/10/02 07:21:03;;;;;;;;;;;;;;;;;;5015411;28;20364;-75
2022/10/02 07:23:44;;;;;;;;;;;;;;;;;;5015302;28;20376;-75
2022/10/02 07:26:34;;;;;;;;;;;;;;;;;;5014268;28;19929;-76
2022/10/02 07:29:07;;;;;;;;;;;;;;;;;;5009161;28;20012;-74
2022/10/02 07:31:39;;;;;;;;;;;;;;;;;;5015158;28;19975;-75
2022/10/02 07:34:12;;;;;;;;;;;;;;;;;;5015222;28;19953;-75
2022/10/02 07:36:45;;;;;;;;;;;;;;;;;;5014978;28;19948;-75
2022/10/02 07:39:21;;;;;;;;;;;;;;;;;;5014814;28;19965;-74
2022/10/02 07:41:55;;;;;;;;;;;;;;;;;;5014952;28;19926;-75
2022/10/02 07:44:37;;;;;;;;;;;;;;;;;;5015424;28;19932;-75
2022/10/02 07:47:09;;;;;;;;;;;;;;;;;;5015386;28;19929;-75
2022/10/02 07:49:43;;;;;;;;;;;;;;;;;;5015017;28;19929;-74
2022/10/02 07:52:16;;;;;;;;;;;;;;;;;;5015411;28;20372;-74
2022/10/02 07:55:03;;;;;;;;;;;;;;;;;;5015085;28;19926;-75
2022/10/02 07:57:33;;;;;;;;;;;;;;;;;;5013037;28;19929;-75
2022/10/02 08:00:04;;;;;;;;;;;;;;;;;;5015192;28;19926;-75
2022/10/02 08:02:35;;;;;;;;;;;;;;;;;;5023377;28;19933;-76
2022/10/02 08:05:04;;;;;;;;;;;;;;;;;;5034674;28;19929;-75
2022/10/02 08:07:31;;;;;;;;;;;;;;;;;;5034288;28;19929;-74
2022/10/02 08:09:59;;;;;;;;;;;;;;;;;;5034299;28;20024;-74
2022/10/02 08:12:28;;;;;;;;;;;;;;;;;;5034363;28;20385;-75
2022/10/02 08:14:56;;;;;;;;;;;;;;;;;;5034261;28;19987;-74
2022/10/02 08:17:27;;;;;;;;;;;;;;;;;;5033690;28;20016;-74
2022/10/02 08:19:55;;;;;;;;;;;;;;;;;;5027155;28;19948;-76
2022/10/02 08:22:23;;;;;;;;;;;;;;;;;;5026841;28;19928;-74
2022/10/02 08:24:52;;;;;;;;;;;;;;;;;;5034096;28;19987;-75
2022/10/02 08:27:21;;;;;;;;;;;;;;;;;;5034271;28;19937;-75
2022/10/02 08:29:50;;;;;;;;;;;;;;;;;;5033625;28;19995;-76
2022/10/02 08:32:16;;;;;;;;;;;;;;;;;;5035233;28;19925;-78
2022/10/02 08:34:45;;;;;;;;;;;;;;;;;;5029530;28;19926;-77
2022/10/02 08:37:20;;;;;;;;;;;;;;;;;;5031509;28;19925;-77
2022/10/02 08:40:01;;;;;;;;;;;;;;;;;;5028657;28;19932;-78
2022/10/02 08:42:44;;;;;;;;;;;;;;;;;;5026743;28;20389;-77
2022/10/02 08:45:38;;;;;;;;;;;;;;;;;;5018311;28;20448;-78
2022/10/02 08:48:30;;;;;;;;;;;;;;;;;;5025937;28;19924;-79
2022/10/02 08:51:21;;;;;;;;;;;;;;;;;;5025105;28;19925;-77
2022/10/02 08:54:00;;;;;;;;;;;;;;;;;;4986434;28;19950;-77
2022/10/02 08:56:42;;;;;;;;;;;;;;;;;;5023221;28;19965;-78
2022/10/02 08:59:30;;;;;;;;;;;;;;;;;;5033412;28;20012;-77
2022/10/02 09:02:18;;;;;;;;;;;;;;;;;;5032239;28;19925;-78
2022/10/02 09:04:59;;;;;;;;;;;;;;;;;;5015671;28;19926;-77
2022/10/02 09:07:50;;;;;;;;;;;;;;;;;;5017327;28;19933;-79
2022/10/02 09:10:34;;;;;;;;;;;;;;;;;;5014415;28;19926;-76
2022/10/02 09:13:21;;;;;;;;;;;;;;;;;;5015592;28;19926;-78
2022/10/02 09:15:48;;;;;;;;;;;;;;;;;;5018871;28;19926;-78
2022/10/02 09:18:19;;;;;;;;;;;;;;;;;;5030126;28;19925;-76
2022/10/02 09:21:03;;;;;;;;;;;;;;;;;;5030178;28;19926;-77
2022/10/02 09:23:44;;;;;;;;;;;;;;;;;;5027242;28;19981;-80
2022/10/02 09:26:17;;;;;;;;;;;;;;;;;;5018712;28;20305;-79
2022/10/02 09:28:59;;;;;;;;;;;;;;;;;;5018777;28;20450;-80
2022/10/02 09:31:41;;;;;;;;;;;;;;;;;;5020691;28;20011;-83
2022/10/02 09:34:22;;;;;;;;;;;;;;;;;;5018887;28;19975;-84
2022/10/02 09:37:09;;;;;;;;;;;;;;;;;;5019919;28;20021;-78
2022/10/02 09:39:51;;;;;;;;;;;;;;;;;;5017014;28;19936;-77
2022/10/02 09:42:26;;;;;;;;;;;;;;;;;;5014799;28;19930;-79
2022/10/02 09:45:23;;;;;;;;;;;;;;;;;;5015296;28;19929;-78
2022/10/02 09:48:20;;;;;;;;;;;;;;;;;;5015925;28;19940;-78
2022/10/02 09:51:05;;;;;;;;;;;;;;;;;;5035095;28;19979;-77
2022/10/02 09:53:50;;;;;;;;;;;;;;;;;;5039934;28;20335;-78
2022/10/02 09:56:34;;;;;;;;;;;;;;;;;;5038555;28;19929;-78
2022/10/02 09:59:18;;;;;;;;;;;;;;;;;;5037930;28;19956;-78
2022/10/02 10:01:53;;;;;;;;;;;;;;;;;;5031738;28;19925;-76
2022/10/02 10:04:42;;;;;;;;;;;;;;;;;;5037111;28;19925;-78
2022/10/02 10:07:21;;;;;;;;;;;;;;;;;;5034707;28;19925;-77
2022/10/02 10:10:02;;;;;;;;;;;;;;;;;;5033478;28;19929;-78
2022/10/02 10:12:50;;;;;;;;;;;;;;;;;;5032532;28;20023;-77
2022/10/02 10:15:31;;;;;;;;;;;;;;;;;;5033982;28;19937;-78
2022/10/02 10:18:16;;;;;;;;;;;;;;;;;;5022596;28;19972;-77
2022/10/02 10:20:57;;;;;;;;;;;;;;;;;;5014369;28;19925;-77
2022/10/02 10:23:36;;;;;;;;;;;;;;;;;;5013560;28;19980;-77
2022/10/02 10:26:13;;;;;;;;;;;;;;;;;;5017951;28;19952;-77
2022/10/02 10:28:56;;;;;;;;;;;;;;;;;;5023764;28;19984;-78
2022/10/02 10:31:41;;;;;;;;;;;;;;;;;;5023022;28;19961;-78
2022/10/02 10:34:21;;;;;;;;;;;;;;;;;;5014051;28;19925;-77
2022/10/02 10:39:58;;;;;;;;;;;;;;;;;;5028549;28;19975;-78
2022/10/02 10:42:41;;;;;;;;;;;;;;;;;;5017894;28;20012;-78
2022/10/02 10:45:21;;;;;;;;;;;;;;;;;;5017836;28;20059;-78
2022/10/02 10:48:05;;;;;;;;;;;;;;;;;;5015041;28;20048;-78
2022/10/02 10:50:39;;;;;;;;;;;;;;;;;;5012782;28;19933;-77
2022/10/02 10:53:21;;;;;;;;;;;;;;;;;;5021038;28;19968;-77
2022/10/02 10:56:06;;;;;;;;;;;;;;;;;;5017115;28;19925;-76
2022/10/02 10:58:38;;;;;;;;;;;;;;;;;;5026482;28;19930;-77
2022/10/02 11:01:12;;;;;;;;;;;;;;;;;;5034165;28;19953;-78
2022/10/02 11:03:53;;;;;;;;;;;;;;;;;;5039200;28;19931;-78
2022/10/02 11:06:30;;;;;;;;;;;;;;;;;;5040675;28;20020;-78
2022/10/02 11:09:15;;;;;;;;;;;;;;;;;;5036374;28;19968;-77
2022/10/02 11:11:49;;;;;;;;;;;;;;;;;;5036347;28;19932;-78
2022/10/02 11:14:22;;;;;;;;;;;;;;;;;;5036514;28;20011;-78
2022/10/02 11:17:05;;;;;;;;;;;;;;;;;;5035111;28;19979;-78
2022/10/02 11:19:36;;;;;;;;;;;;;;;;;;5036019;28;20011;-76
2022/10/02 11:22:13;;;;;;;;;;;;;;;;;;5035573;28;19932;-77
2022/10/02 11:24:47;;;;;;;;;;;;;;;;;;5035068;28;19971;-77
2022/10/02 11:27:25;;;;;;;;;;;;;;;;;;5035378;28;20390;-76
2022/10/02 11:30:01;;;;;;;;;;;;;;;;;;5036268;28;19933;-77
2022/10/02 11:32:46;;;;;;;;;;;;;;;;;;5034820;28;19925;-78
2022/10/02 11:35:20;;;;;;;;;;;;;;;;;;5035967;28;19929;-78
2022/10/02 11:38:07;;;;;;;;;;;;;;;;;;5036547;28;19925;-78
2022/10/02 11:40:43;;;;;;;;;;;;;;;;;;5034841;28;19947;-77
2022/10/02 11:43:27;;;;;;;;;;;;;;;;;;5036085;28;20008;-78
2022/10/02 11:46:03;;;;;;;;;;;;;;;;;;5037556;28;19925;-77
2022/10/02 11:48:42;;;;;;;;;;;;;;;;;;5035098;28;19988;-76
2022/10/02 11:51:28;;;;;;;;;;;;;;;;;;5034420;28;20292;-76
2022/10/02 11:54:09;;;;;;;;;;;;;;;;;;5034569;28;20345;-75
2022/10/02 11:56:42;;;;;;;;;;;;;;;;;;5034944;28;20025;-78
2022/10/02 11:59:26;;;;;;;;;;;;;;;;;;5034442;28;19925;-78
2022/10/02 12:01:55;;;;;;;;;;;;;;;;;;5032005;28;19929;-77
2022/10/02 12:04:29;;;;;;;;;;;;;;;;;;5015170;28;19933;-75
2022/10/02 12:07:09;;;;;;;;;;;;;;;;;;5015926;28;19932;-76
2022/10/02 12:09:40;;;;;;;;;;;;;;;;;;5014461;28;20012;-77
2022/10/02 12:12:16;;;;;;;;;;;;;;;;;;5014383;28;19932;-75
2022/10/02 12:14:48;;;;;;;;;;;;;;;;;;5015501;28;20428;-77
2022/10/02 12:17:23;;;;;;;;;;;;;;;;;;5015949;28;19933;-77
2022/10/02 12:28:42;;;;;;;;;;;;;;;;;;5014675;28;20017;-77
2022/10/02 12:31:14;;;;;;;;;;;;;;;;;;5015267;28;19925;-79
2022/10/02 12:33:44;;;;;;;;;;;;;;;;;;5015563;28;19929;-78
2022/10/02 12:36:20;;;;;;;;;;;;;;;;;;5015583;28;19925;-77
2022/10/02 12:38:51;;;;;;;;;;;;;;;;;;5015237;28;19926;-76
2022/10/02 12:41:34;;;;;;;;;;;;;;;;;;5015363;28;19925;-77
2022/10/02 12:44:15;;;;;;;;;;;;;;;;;;5015018;28;19925;-78
2022/10/02 12:46:58;;;;;;;;;;;;;;;;;;5015503;28;20004;-77
2022/10/02 12:49:32;;;;;;;;;;;;;;;;;;5015405;28;19925;-78
2022/10/02 12:52:12;;;;;;;;;;;;;;;;;;5015432;28;19932;-78
2022/10/02 12:55:05;;;;;;;;;;;;;;;;;;5015468;28;20332;-77
2022/10/02 12:57:54;;;;;;;;;;;;;;;;;;5002464;28;19926;-78
2022/10/02 13:00:23;;;;;;;;;;;;;;;;;;5015074;28;19930;-77
2022/10/02 13:03:20;;;;;;;;;;;;;;;;;;5014101;28;19986;-78
2022/10/02 13:06:02;;;;;;;;;;;;;;;;;;5013858;28;19976;-77
2022/10/02 13:08:40;;;;;;;;;;;;;;;;;;5013696;28;19964;-77
2022/10/02 13:11:12;;;;;;;;;;;;;;;;;;5013932;28;19973;-77
2022/10/02 13:13:50;;;;;;;;;;;;;;;;;;5017141;28;19929;-78
2022/10/02 13:16:23;;;;;;;;;;;;;;;;;;5022202;28;19925;-78
2022/10/02 13:18:59;;;;;;;;;;;;;;;;;;5017950;28;19932;-78
2022/10/02 13:21:30;;;;;;;;;;;;;;;;;;5015422;28;20427;-77
2022/10/02 13:24:04;;;;;;;;;;;;;;;;;;5016455;28;20024;-77
2022/10/02 13:26:37;;;;;;;;;;;;;;;;;;5015879;28;19976;-78
2022/10/02 13:29:18;;;;;;;;;;;;;;;;;;5014813;28;20480;-78
2022/10/02 13:31:54;;;;;;;;;;;;;;;;;;5014582;28;19925;-77
2022/10/02 13:34:32;;;;;;;;;;;;;;;;;;5014978;28;19971;-77
2022/10/02 13:37:05;;;;;;;;;;;;;;;;;;5015565;28;19926;-77
2022/10/02 13:39:36;;;;;;;;;;;;;;;;;;5014524;28;19925;-78
2022/10/02 13:42:09;;;;;;;;;;;;;;;;;;5016169;28;19929;-78
2022/10/02 13:44:38;;;;;;;;;;;;;;;;;;5015550;28;19964;-78
2022/10/02 13:47:23;;;;;;;;;;;;;;;;;;5015282;28;19968;-78
2022/10/02 13:49:57;;;;;;;;;;;;;;;;;;5019644;28;19995;-78
2022/10/02 13:52:29;;;;;;;;;;;;;;;;;;5018860;28;19965;-78
2022/10/02 13:55:04;;;;;;;;;;;;;;;;;;5017496;28;19925;-77
2022/10/02 13:57:42;;;;;;;;;;;;;;;;;;5019869;28;19925;-79
2022/10/02 14:00:12;;;;;;;;;;;;;;;;;;5033692;28;19925;-80
2022/10/02 14:02:46;;;;;;;;;;;;;;;;;;5041572;28;19926;-77
2022/10/02 14:05:18;;;;;;;;;;;;;;;;;;5035239;28;19929;-77
2022/10/02 14:07:56;;;;;;;;;;;;;;;;;;5041187;28;19968;-77
2022/10/02 14:10:30;;;;;;;;;;;;;;;;;;5036789;28;19960;-78
2022/10/02 14:13:06;;;;;;;;;;;;;;;;;;5033209;28;19992;-78
2022/10/02 14:15:42;;;;;;;;;;;;;;;;;;5033421;28;20303;-79
2022/10/02 14:18:21;;;;;;;;;;;;;;;;;;5033656;28;19956;-76
2022/10/02 14:20:52;;;;;;;;;;;;;;;;;;5033447;28;19925;-78
2022/10/02 14:25:54;;;;;;;;;;;;;;;;;;5031620;28;20383;-79
2022/10/02 14:28:38;;;;;;;;;;;;;;;;;;5034535;28;20306;-79
2022/10/02 14:31:13;;;;;;;;;;;;;;;;;;5035526;28;20406;-80
2022/10/02 14:33:52;;;;;;;;;;;;;;;;;;5036357;28;20402;-80
2022/10/02 14:36:23;;;;;;;;;;;;;;;;;;5040971;28;19932;-81
2022/10/02 14:38:54;;;;;;;;;;;;;;;;;;5041335;28;20344;-80
2022/10/02 14:41:38;;;;;;;;;;;;;;;;;;5040380;28;19932;-79
2022/10/02 14:44:09;;;;;;;;;;;;;;;;;;5039477;28;20011;-80
2022/10/02 14:46:48;;;;;;;;;;;;;;;;;;5044256;28;19971;-80
2022/10/02 14:49:23;;;;;;;;;;;;;;;;;;5040069;28;19929;-82
2022/10/02 14:52:04;;;;;;;;;;;;;;;;;;5040409;28;19968;-80
2022/10/02 14:54:38;;;;;;;;;;;;;;;;;;5040850;28;19964;-82
2022/10/02 14:57:15;;;;;;;;;;;;;;;;;;5041289;28;20307;-80
2022/10/02 14:59:46;;;;;;;;;;;;;;;;;;5038860;28;20385;-80
2022/10/02 15:02:26;;;;;;;;;;;;;;;;;;5044941;28;20375;-80
2022/10/02 15:04:58;;;;;;;;;;;;;;;;;;5059195;28;19972;-81
2022/10/02 15:07:27;;;;;;;;;;;;;;;;;;5059837;28;19947;-81
2022/10/02 15:10:00;;;;;;;;;;;;;;;;;;5058046;28;20153;-80
2022/10/02 15:12:30;;;;;;;;;;;;;;;;;;5058518;28;19971;-80
2022/10/02 15:15:02;;;;;;;;;;;;;;;;;;5058377;28;19924;-80
2022/10/02 15:20:21;;;;;;;;;;;;;;;;;;5058081;28;19931;-80
2022/10/02 15:22:55;;;;;;;;;;;;;;;;;;5058004;28;19925;-80
2022/10/02 15:25:26;;;;;;;;;;;;;;;;;;5058189;28;19975;-80
2022/10/02 15:27:58;;;;;;;;;;;;;;;;;;5058896;28;20003;-80
2022/10/02 15:30:25;;;;;;;;;;;;;;;;;;5057722;28;19979;-80
2022/10/02 15:33:03;;;;;;;;;;;;;;;;;;5058610;28;20140;-80
2022/10/02 15:35:35;;;;;;;;;;;;;;;;;;5057789;28;19929;-80
2022/10/02 15:38:10;;;;;;;;;;;;;;;;;;5058602;28;19931;-80
2022/10/02 15:40:39;;;;;;;;;;;;;;;;;;5057441;28;19982;-79
2022/10/02 15:43:23;;;;;;;;;;;;;;;;;;5058342;28;19970;-80
2022/10/02 15:45:55;;;;;;;;;;;;;;;;;;5057981;28;19973;-80
2022/10/02 15:48:31;;;;;;;;;;;;;;;;;;5057681;28;19977;-80
2022/10/02 15:51:02;;;;;;;;;;;;;;;;;;5057954;28;19925;-80
2022/10/02 15:53:43;;;;;;;;;;;;;;;;;;5057750;28;19925;-80
2022/10/02 15:56:21;;;;;;;;;;;;;;;;;;5057644;28;19925;-80
2022/10/02 15:59:01;;;;;;;;;;;;;;;;;;5058047;28;19971;-80
2022/10/02 16:01:36;;;;;;;;;;;;;;;;;;5056505;28;19932;-78
2022/10/02 16:04:06;;;;;;;;;;;;;;;;;;5016145;28;20303;-80
2022/10/02 16:06:42;;;;;;;;;;;;;;;;;;5019171;28;20020;-79
2022/10/02 16:09:17;;;;;;;;;;;;;;;;;;5016553;28;19925;-79
2022/10/02 16:12:01;;;;;;;;;;;;;;;;;;5018460;28;20414;-79
2022/10/02 16:14:35;;;;;;;;;;;;;;;;;;5016746;28;19979;-79
2022/10/02 16:17:10;;;;;;;;;;;;;;;;;;5016757;28;19926;-79
2022/10/02 16:19:43;;;;;;;;;;;;;;;;;;5016210;28;20388;-79
2022/10/02 16:22:17;;;;;;;;;;;;;;;;;;5015569;28;19926;-79
2022/10/02 16:25:05;;;;;;;;;;;;;;;;;;5015271;28;19925;-79
2022/10/02 16:27:45;;;;;;;;;;;;;;;;;;5015794;28;19925;-79
2022/10/02 16:30:12;;;;;;;;;;;;;;;;;;5015499;28;20004;-79
2022/10/02 16:32:48;;;;;;;;;;;;;;;;;;5016103;28;20419;-79
2022/10/02 16:35:44;;;;;;;;;;;;;;;;;;5018104;28;19980;-77
2022/10/02 16:38:17;;;;;;;;;;;;;;;;;;5013787;28;19932;-78
2022/10/02 16:40:53;;;;;;;;;;;;;;;;;;5014513;28;20384;-76
2022/10/02 16:43:31;;;;;;;;;;;;;;;;;;5013981;28;19968;-76
2022/10/02 16:46:02;;;;;;;;;;;;;;;;;;5014161;28;19942;-77
2022/10/02 16:48:37;;;;;;;;;;;;;;;;;;5013943;28;19925;-77
2022/10/02 16:51:10;;;;;;;;;;;;;;;;;;5013820;28;20280;-77
2022/10/02 16:53:41;;;;;;;;;;;;;;;;;;5013993;28;19936;-77
2022/10/02 16:56:12;;;;;;;;;;;;;;;;;;5012904;28;20295;-77
2022/10/02 16:58:44;;;;;;;;;;;;;;;;;;5017222;28;19925;-78
2022/10/02 17:01:24;;;;;;;;;;;;;;;;;;5017614;28;20455;-78
2022/10/02 17:04:05;;;;;;;;;;;;;;;;;;5055137;28;19924;-78
2022/10/02 17:06:34;;;;;;;;;;;;;;;;;;5040767;28;19952;-78
2022/10/02 17:09:05;;;;;;;;;;;;;;;;;;5037840;28;20299;-78
2022/10/02 17:11:36;;;;;;;;;;;;;;;;;;5037508;28;19944;-78
2022/10/02 17:14:10;;;;;;;;;;;;;;;;;;5037164;28;19994;-79
2022/10/02 17:16:38;;;;;;;;;;;;;;;;;;5036385;28;20393;-78
2022/10/02 17:19:15;;;;;;;;;;;;;;;;;;5035067;28;20442;-78
2022/10/02 17:21:44;;;;;;;;;;;;;;;;;;5035040;28;19925;-78
2022/10/02 17:24:28;;;;;;;;;;;;;;;;;;5036642;28;19937;-78
2022/10/02 17:27:01;;;;;;;;;;;;;;;;;;5023028;28;20368;-77
2022/10/02 17:29:29;;;;;;;;;;;;;;;;;;5033528;28;19992;-77
2022/10/02 17:31:57;;;;;;;;;;;;;;;;;;5032836;28;19956;-77
2022/10/02 17:34:24;;;;;;;;;;;;;;;;;;5037686;28;20003;-77
2022/10/02 17:37:01;;;;;;;;;;;;;;;;;;5033413;28;19925;-81
2022/10/02 17:39:41;;;;;;;;;;;;;;;;;;5038012;28;20442;-78
2022/10/02 17:42:14;;;;;;;;;;;;;;;;;;5034430;28;20643;-79
2022/10/02 17:44:46;;;;;;;;;;;;;;;;;;5033930;28;19953;-77
2022/10/02 17:47:31;;;;;;;;;;;;;;;;;;5034009;28;19931;-78
2022/10/02 17:50:14;;;;;;;;;;;;;;;;;;5034214;28;19932;-78
2022/10/02 17:58:30;;;;;;;;;;;;;;;;;;5036748;28;19970;-76